This is the latest recevied weather packets stored in our database for station/object KU4DD. If no packets are shown the sender has not sent any weather packets the latest 10 day(s).
| Time | Temp. | Humidity | Pressure | Rain* | Wind** | Luminosity | Snow |
|---|---|---|---|---|---|---|---|
| 1788357588 | 30° C | 78% | 1017.6 hPa | 0 mm | - | 547 W/m² | - |
| 1788353276 | 26.67° C | 89% | 1017.9 hPa | 0 mm | - | 308 W/m² | - |
| 1788352640 | 26.11° C | 90% | 1017.9 hPa | 0 mm | - | 272 W/m² | - |
| 1788352009 | 25.56° C | 92% | 1017.9 hPa | 0 mm | - | 239 W/m² | - |
| 1788348302 | 23.89° C | 95% | 1017.9 hPa | 0 mm | - | 60 W/m² | - |
| 1788346447 | 23.89° C | 94% | 1017.9 hPa | 0 mm | - | 7 W/m² | - |
| 1788344586 | 23.89° C | 94% | 1017.6 hPa | 0 mm | - | 0 W/m² | - |
| 1788343639 | 23.89° C | 94% | 1017.6 hPa | 0 mm | - | 0 W/m² | - |
| 1788343026 | 24.44° C | 94% | 1017.6 hPa | 0 mm | - | 0 W/m² | - |
| 1788340551 | 24.44° C | 93% | 1017.6 hPa | 0 mm | - | 0 W/m² | - |
| 1788340229 | 24.44° C | 93% | 1017.6 hPa | 0 mm | - | 0 W/m² | - |
| 1788336846 | 25° C | 91% | 1017.6 hPa | 0 mm | - | 0 W/m² | - |
| 1788335609 | 25° C | 91% | 1017.6 hPa | 0 mm | - | 0 W/m² | - |
| 1788333731 | 25.56° C | 90% | 1017.6 hPa | 0 mm | - | 0 W/m² | - |
| 1788333415 | 25.56° C | 90% | 1017.6 hPa | 0 mm | - | 0 W/m² | - |
| 1788333094 | 25.56° C | 90% | 1017.6 hPa | 0 mm | - | 0 W/m² | - |
| 1788331256 | 25.56° C | 90% | 1017.9 hPa | 0 mm | - | 0 W/m² | - |
| 1788328792 | 26.11° C | 90% | 1017.9 hPa | 0 mm | - | 0 W/m² | - |
| 1788328168 | 26.11° C | 90% | 1017.9 hPa | 0 mm | - | 0 W/m² | - |
| 1788323225 | 26.67° C | 87% | 1017.3 hPa | 0 mm | - | 0 W/m² | - |
| 1788322596 | 27.22° C | 86% | 1017.3 hPa | 0 mm | - | 0 W/m² | - |
| 1788321667 | 27.22° C | 85% | 1016.9 hPa | 0 mm | - | 0 W/m² | - |
| 1788318897 | 27.78° C | 82% | 1016.9 hPa | 0 mm | - | 0 W/m² | - |
| 1788317953 | 28.33° C | 80% | 1016.9 hPa | 0 mm | - | 0 W/m² | - |
| 1788312723 | 28.33° C | 77% | 1016.3 hPa | 0 mm | - | 0 W/m² | - |
* Rain latest hour (hover to see other rain measurements)
** Current wind speed in m/s (hover to see current wind gust speed)